SBOSBO FSC / LFKF
Speedbird OnlineSpeedbird Online FSC / LFKF

Figari Sud-Corse Airport
08:57 24°C

Location Figari, France
Latitude: 41.5005989074707
Longitude: 9.097780227661133
Local Time 08:57 on 18 Jul 2024
UTC +2 hours (Europe/Paris)
Currency £1 equals EUR 1.19
METAR LFKF 180630Z AUTO VRB02KT CAVOK 24/19 Q1017 BECMG 23015G25KT
TAF TAF LFKF 180200Z 1803/1903 VRB03KT CAVOK BECMG 1808/1810 23015G25KT BECMG 1816/1818 VRB03KT
Weather As Of 18 Jul 2024 08:57
Description Clear sky
Wind 4 km/h from North (0°)
Cloud Cover 0%
Precipitation Rain: none, Snow: none
Sunrise 06:05
Sunset 20:53
NOTAM 10 active NOTAM
Rotations During the last 90 days there were
10 flights from LHR
17 flights to LHR
Web Wikipedia
Codes IATA: FSC
ICAO: LFKF
Altitude 27 Meter / 87 Feet
Distance 1,305 KM / 811 Miles
from London.
Runways
RunwayLength (m)Surface
052480Asphalt
232480Asphalt
Radio
TypeDescriptionFrequency
ATISFIGARI INFO118.725
GNDFIGARI GND121.8
TWRFIGARI TWR120.3
Live ATC



Support Speedbird Online

© 2017-2024 Speedbird Online